EGVO METAR and TAF | Updated Today

EGVO METAR

RAF Odiham

Observation time: 35 min. ago

EGVO 292150Z AUTO 03012KT 9999 NCD 12/05 Q1028

Need help? Read our tutorial on how to read METARs or read the parsed version below.

RAF Odiham (EGVO) METAR

  • Weather conditions on Mon, 29 May 2023 21:50:00 +0000 (35 min. ago):
  • Present conditions: Dry
  • Clouds: Nil cloud detected
  • Visibility: Greater than 10 km
  • Wind: 30 degrees at 12 knots
  • Temperature: 12 celsius
  • Dew point: 5 celsius
  • Pressure: 1028 millibars
  • Remarks: None


Useful to know...